sensor_id;sensor_type;location;lat;lon;timestamp;temperature;humidity
15113;DHT22;7657;50.140;7.076;2023-02-15T00:01:33;4.50;99.90
15113;DHT22;7657;50.140;7.076;2023-02-15T00:04:00;4.50;99.90
15113;DHT22;7657;50.140;7.076;2023-02-15T00:06:28;4.40;99.90
15113;DHT22;7657;50.140;7.076;2023-02-15T00:08:55;4.30;99.90
15113;DHT22;7657;50.140;7.076;2023-02-15T00:11:22;4.40;99.90
15113;DHT22;7657;50.140;7.076;2023-02-15T00:14:03;4.40;99.90
15113;DHT22;7657;50.140;7.076;2023-02-15T00:16:30;4.40;99.90
15113;DHT22;7657;50.140;7.076;2023-02-15T00:18:57;4.40;99.90
15113;DHT22;7657;50.140;7.076;2023-02-15T00:21:29;4.30;99.90
15113;DHT22;7657;50.140;7.076;2023-02-15T00:23:56;4.30;99.90
15113;DHT22;7657;50.140;7.076;2023-02-15T00:26:23;4.30;99.90
15113;DHT22;7657;50.140;7.076;2023-02-15T00:28:51;4.40;99.90
15113;DHT22;7657;50.140;7.076;2023-02-15T00:31:18;4.40;99.90
15113;DHT22;7657;50.140;7.076;2023-02-15T00:33:45;4.30;99.90
15113;DHT22;7657;50.140;7.076;2023-02-15T00:36:13;4.30;99.90
15113;DHT22;7657;50.140;7.076;2023-02-15T00:38:41;4.30;99.90
15113;DHT22;7657;50.140;7.076;2023-02-15T00:41:08;4.20;99.90
15113;DHT22;7657;50.140;7.076;2023-02-15T00:43:36;4.30;99.90
15113;DHT22;7657;50.140;7.076;2023-02-15T00:46:04;4.20;99.90
15113;DHT22;7657;50.140;7.076;2023-02-15T00:48:31;4.20;99.90
15113;DHT22;7657;50.140;7.076;2023-02-15T00:50:59;4.20;99.90
15113;DHT22;7657;50.140;7.076;2023-02-15T00:53:27;4.20;99.90
15113;DHT22;7657;50.140;7.076;2023-02-15T00:55:56;4.20;99.90
15113;DHT22;7657;50.140;7.076;2023-02-15T00:58:23;4.20;99.90
15113;DHT22;7657;50.140;7.076;2023-02-15T01:00:50;4.20;99.90
15113;DHT22;7657;50.140;7.076;2023-02-15T01:03:18;4.20;99.90
15113;DHT22;7657;50.140;7.076;2023-02-15T01:05:47;4.10;99.90
15113;DHT22;7657;50.140;7.076;2023-02-15T01:08:14;4.10;99.90
15113;DHT22;7657;50.140;7.076;2023-02-15T01:10:41;4.10;99.90
15113;DHT22;7657;50.140;7.076;2023-02-15T01:13:10;4.10;99.90
15113;DHT22;7657;50.140;7.076;2023-02-15T01:15:37;4.20;99.90
15113;DHT22;7657;50.140;7.076;2023-02-15T01:18:04;4.20;99.90
15113;DHT22;7657;50.140;7.076;2023-02-15T01:20:35;4.20;99.90
15113;DHT22;7657;50.140;7.076;2023-02-15T01:23:04;4.20;99.90
15113;DHT22;7657;50.140;7.076;2023-02-15T01:25:33;4.10;99.90
15113;DHT22;7657;50.140;7.076;2023-02-15T01:28:00;4.10;99.90
15113;DHT22;7657;50.140;7.076;2023-02-15T01:30:29;4.10;99.90
15113;DHT22;7657;50.140;7.076;2023-02-15T01:32:56;4.00;99.90
15113;DHT22;7657;50.140;7.076;2023-02-15T01:35:24;4.10;99.90
15113;DHT22;7657;50.140;7.076;2023-02-15T01:37:51;4.00;99.90
15113;DHT22;7657;50.140;7.076;2023-02-15T01:40:18;4.00;99.90
15113;DHT22;7657;50.140;7.076;2023-02-15T01:42:45;3.90;99.90
15113;DHT22;7657;50.140;7.076;2023-02-15T01:45:19;3.90;99.90
15113;DHT22;7657;50.140;7.076;2023-02-15T01:47:54;4.00;99.90
15113;DHT22;7657;50.140;7.076;2023-02-15T01:50:28;4.10;99.90
15113;DHT22;7657;50.140;7.076;2023-02-15T01:53:01;4.10;99.90
15113;DHT22;7657;50.140;7.076;2023-02-15T01:55:32;4.10;99.90
15113;DHT22;7657;50.140;7.076;2023-02-15T01:58:01;4.10;99.90
15113;DHT22;7657;50.140;7.076;2023-02-15T02:00:29;4.10;99.90
15113;DHT22;7657;50.140;7.076;2023-02-15T02:02:57;4.10;99.90
15113;DHT22;7657;50.140;7.076;2023-02-15T02:05:25;4.10;99.90
15113;DHT22;7657;50.140;7.076;2023-02-15T02:07:54;4.00;99.90
15113;DHT22;7657;50.140;7.076;2023-02-15T02:10:24;4.00;99.90
15113;DHT22;7657;50.140;7.076;2023-02-15T02:12:53;4.00;99.90
15113;DHT22;7657;50.140;7.076;2023-02-15T02:15:25;4.00;99.90
15113;DHT22;7657;50.140;7.076;2023-02-15T02:18:05;4.00;99.90
15113;DHT22;7657;50.140;7.076;2023-02-15T02:20:55;3.90;99.90
15113;DHT22;7657;50.140;7.076;2023-02-15T02:23:33;3.90;99.90
15113;DHT22;7657;50.140;7.076;2023-02-15T02:26:38;3.90;99.90
15113;DHT22;7657;50.140;7.076;2023-02-15T02:29:33;3.90;99.90
15113;DHT22;7657;50.140;7.076;2023-02-15T02:35:22;3.90;99.90
15113;DHT22;7657;50.140;7.076;2023-02-15T02:38:02;3.90;99.90
15113;DHT22;7657;50.140;7.076;2023-02-15T02:40:38;3.90;99.90
15113;DHT22;7657;50.140;7.076;2023-02-15T02:43:13;3.90;99.90
15113;DHT22;7657;50.140;7.076;2023-02-15T02:45:45;3.90;99.90
15113;DHT22;7657;50.140;7.076;2023-02-15T02:48:17;3.90;99.90
15113;DHT22;7657;50.140;7.076;2023-02-15T02:50:47;3.90;99.90
15113;DHT22;7657;50.140;7.076;2023-02-15T02:53:14;3.90;99.90
15113;DHT22;7657;50.140;7.076;2023-02-15T02:55:44;3.80;99.90
15113;DHT22;7657;50.140;7.076;2023-02-15T02:58:15;3.90;99.90
15113;DHT22;7657;50.140;7.076;2023-02-15T03:00:46;3.90;99.90
15113;DHT22;7657;50.140;7.076;2023-02-15T03:03:17;3.80;99.90
15113;DHT22;7657;50.140;7.076;2023-02-15T03:05:51;3.80;99.90
15113;DHT22;7657;50.140;7.076;2023-02-15T03:08:21;3.80;99.90
15113;DHT22;7657;50.140;7.076;2023-02-15T03:10:53;3.80;99.90
15113;DHT22;7657;50.140;7.076;2023-02-15T03:13:20;3.70;99.90
15113;DHT22;7657;50.140;7.076;2023-02-15T03:15:49;3.70;99.90
15113;DHT22;7657;50.140;7.076;2023-02-15T03:18:37;3.70;99.90
15113;DHT22;7657;50.140;7.076;2023-02-15T03:21:08;3.70;99.90
15113;DHT22;7657;50.140;7.076;2023-02-15T03:23:49;3.60;99.90
15113;DHT22;7657;50.140;7.076;2023-02-15T03:26:20;3.60;99.90
15113;DHT22;7657;50.140;7.076;2023-02-15T03:28:50;3.60;99.90
15113;DHT22;7657;50.140;7.076;2023-02-15T03:31:21;3.60;99.90
15113;DHT22;7657;50.140;7.076;2023-02-15T03:33:54;3.50;99.90
15113;DHT22;7657;50.140;7.076;2023-02-15T03:36:28;3.50;99.90
15113;DHT22;7657;50.140;7.076;2023-02-15T03:39:02;3.50;99.90
15113;DHT22;7657;50.140;7.076;2023-02-15T03:41:35;3.50;99.90
15113;DHT22;7657;50.140;7.076;2023-02-15T03:44:06;3.60;99.90
15113;DHT22;7657;50.140;7.076;2023-02-15T03:46:37;3.50;99.90
15113;DHT22;7657;50.140;7.076;2023-02-15T03:49:09;3.50;99.90
15113;DHT22;7657;50.140;7.076;2023-02-15T03:51:41;3.50;99.90
15113;DHT22;7657;50.140;7.076;2023-02-15T03:54:11;3.40;99.90
15113;DHT22;7657;50.140;7.076;2023-02-15T03:56:41;3.30;99.90
15113;DHT22;7657;50.140;7.076;2023-02-15T03:59:28;3.30;99.90
15113;DHT22;7657;50.140;7.076;2023-02-15T04:02:33;3.40;99.90
15113;DHT22;7657;50.140;7.076;2023-02-15T04:05:01;3.40;99.90
15113;DHT22;7657;50.140;7.076;2023-02-15T04:07:30;3.40;99.90
15113;DHT22;7657;50.140;7.076;2023-02-15T04:09:56;3.40;99.90
15113;DHT22;7657;50.140;7.076;2023-02-15T04:12:41;3.40;99.90
15113;DHT22;7657;50.140;7.076;2023-02-15T04:15:11;3.40;99.90
15113;DHT22;7657;50.140;7.076;2023-02-15T04:18:07;3.50;99.90
15113;DHT22;7657;50.140;7.076;2023-02-15T04:20:34;3.40;99.90
15113;DHT22;7657;50.140;7.076;2023-02-15T04:23:20;3.30;99.90
15113;DHT22;7657;50.140;7.076;2023-02-15T04:26:04;3.30;99.90
15113;DHT22;7657;50.140;7.076;2023-02-15T04:28:31;3.20;99.90
15113;DHT22;7657;50.140;7.076;2023-02-15T04:30:58;3.20;99.90
15113;DHT22;7657;50.140;7.076;2023-02-15T04:33:25;3.30;99.90
15113;DHT22;7657;50.140;7.076;2023-02-15T04:35:52;3.30;99.90
15113;DHT22;7657;50.140;7.076;2023-02-15T04:38:20;3.30;99.90
15113;DHT22;7657;50.140;7.076;2023-02-15T04:40:49;3.30;99.90
15113;DHT22;7657;50.140;7.076;2023-02-15T04:43:17;3.30;99.90
15113;DHT22;7657;50.140;7.076;2023-02-15T04:45:47;3.20;99.90
15113;DHT22;7657;50.140;7.076;2023-02-15T04:48:15;3.10;99.90
15113;DHT22;7657;50.140;7.076;2023-02-15T04:50:42;3.20;99.90
15113;DHT22;7657;50.140;7.076;2023-02-15T04:53:09;3.20;99.90
15113;DHT22;7657;50.140;7.076;2023-02-15T04:55:37;3.30;99.90
15113;DHT22;7657;50.140;7.076;2023-02-15T04:58:04;3.30;99.90
15113;DHT22;7657;50.140;7.076;2023-02-15T05:00:30;3.30;99.90
15113;DHT22;7657;50.140;7.076;2023-02-15T05:02:57;3.30;99.90
15113;DHT22;7657;50.140;7.076;2023-02-15T05:05:24;3.30;99.90
15113;DHT22;7657;50.140;7.076;2023-02-15T05:07:51;3.20;99.90
15113;DHT22;7657;50.140;7.076;2023-02-15T05:10:18;3.10;99.90
15113;DHT22;7657;50.140;7.076;2023-02-15T05:12:46;3.10;99.90
15113;DHT22;7657;50.140;7.076;2023-02-15T05:15:13;3.10;99.90
15113;DHT22;7657;50.140;7.076;2023-02-15T05:17:40;3.20;99.90
15113;DHT22;7657;50.140;7.076;2023-02-15T05:20:08;3.20;99.90
15113;DHT22;7657;50.140;7.076;2023-02-15T05:22:35;3.10;99.90
15113;DHT22;7657;50.140;7.076;2023-02-15T05:25:02;3.10;99.90
15113;DHT22;7657;50.140;7.076;2023-02-15T05:27:47;3.10;99.90
15113;DHT22;7657;50.140;7.076;2023-02-15T05:30:32;3.10;99.90
15113;DHT22;7657;50.140;7.076;2023-02-15T05:32:59;3.10;99.90
15113;DHT22;7657;50.140;7.076;2023-02-15T05:35:25;3.10;99.90
15113;DHT22;7657;50.140;7.076;2023-02-15T05:37:52;3.20;99.90
15113;DHT22;7657;50.140;7.076;2023-02-15T05:40:19;3.20;99.90
15113;DHT22;7657;50.140;7.076;2023-02-15T05:42:48;3.10;99.90
15113;DHT22;7657;50.140;7.076;2023-02-15T05:45:14;3.10;99.90
15113;DHT22;7657;50.140;7.076;2023-02-15T05:47:42;3.10;99.90
15113;DHT22;7657;50.140;7.076;2023-02-15T05:50:09;3.10;99.90
15113;DHT22;7657;50.140;7.076;2023-02-15T05:52:36;3.10;99.90
15113;DHT22;7657;50.140;7.076;2023-02-15T05:55:04;3.10;99.90
15113;DHT22;7657;50.140;7.076;2023-02-15T05:57:32;3.10;99.90
15113;DHT22;7657;50.140;7.076;2023-02-15T06:00:00;3.10;99.90
15113;DHT22;7657;50.140;7.076;2023-02-15T06:02:29;3.10;99.90
15113;DHT22;7657;50.140;7.076;2023-02-15T06:04:56;3.10;99.90
15113;DHT22;7657;50.140;7.076;2023-02-15T06:07:23;3.10;99.90
15113;DHT22;7657;50.140;7.076;2023-02-15T06:09:50;3.10;99.90
15113;DHT22;7657;50.140;7.076;2023-02-15T06:12:17;3.10;99.90
15113;DHT22;7657;50.140;7.076;2023-02-15T06:14:44;3.10;99.90
15113;DHT22;7657;50.140;7.076;2023-02-15T06:17:12;3.10;99.90
15113;DHT22;7657;50.140;7.076;2023-02-15T06:19:39;3.10;99.90
15113;DHT22;7657;50.140;7.076;2023-02-15T06:22:06;3.10;99.90
15113;DHT22;7657;50.140;7.076;2023-02-15T06:24:32;3.00;99.90
15113;DHT22;7657;50.140;7.076;2023-02-15T06:26:59;3.00;99.90
15113;DHT22;7657;50.140;7.076;2023-02-15T06:29:26;3.00;99.90
15113;DHT22;7657;50.140;7.076;2023-02-15T06:31:53;3.00;99.90
15113;DHT22;7657;50.140;7.076;2023-02-15T06:34:21;3.00;99.90
15113;DHT22;7657;50.140;7.076;2023-02-15T06:36:48;3.00;99.90
15113;DHT22;7657;50.140;7.076;2023-02-15T06:39:15;3.00;99.90
15113;DHT22;7657;50.140;7.076;2023-02-15T06:41:42;2.90;99.90
15113;DHT22;7657;50.140;7.076;2023-02-15T06:44:09;2.90;99.90
15113;DHT22;7657;50.140;7.076;2023-02-15T06:46:36;2.90;99.90
15113;DHT22;7657;50.140;7.076;2023-02-15T06:49:02;2.80;99.90
15113;DHT22;7657;50.140;7.076;2023-02-15T06:51:31;2.60;99.90
15113;DHT22;7657;50.140;7.076;2023-02-15T06:53:59;2.70;99.90
15113;DHT22;7657;50.140;7.076;2023-02-15T06:56:26;2.70;99.90
15113;DHT22;7657;50.140;7.076;2023-02-15T06:58:53;2.60;99.90
15113;DHT22;7657;50.140;7.076;2023-02-15T07:01:20;2.50;99.90
15113;DHT22;7657;50.140;7.076;2023-02-15T07:03:47;2.60;99.90
15113;DHT22;7657;50.140;7.076;2023-02-15T07:06:14;2.70;99.90
15113;DHT22;7657;50.140;7.076;2023-02-15T07:08:42;2.70;99.90
15113;DHT22;7657;50.140;7.076;2023-02-15T07:11:09;2.80;99.90
15113;DHT22;7657;50.140;7.076;2023-02-15T07:13:53;2.90;99.90
15113;DHT22;7657;50.140;7.076;2023-02-15T07:16:20;2.90;99.90
15113;DHT22;7657;50.140;7.076;2023-02-15T07:18:47;3.00;99.90
15113;DHT22;7657;50.140;7.076;2023-02-15T07:21:14;3.00;99.90
15113;DHT22;7657;50.140;7.076;2023-02-15T07:23:42;3.10;99.90
15113;DHT22;7657;50.140;7.076;2023-02-15T07:26:09;3.10;99.90
15113;DHT22;7657;50.140;7.076;2023-02-15T07:28:36;3.20;99.90
15113;DHT22;7657;50.140;7.076;2023-02-15T07:31:04;3.20;99.90
15113;DHT22;7657;50.140;7.076;2023-02-15T07:33:32;3.20;99.90
15113;DHT22;7657;50.140;7.076;2023-02-15T07:36:00;3.10;99.90
15113;DHT22;7657;50.140;7.076;2023-02-15T07:38:30;3.20;99.90
15113;DHT22;7657;50.140;7.076;2023-02-15T07:40:59;3.20;99.90
15113;DHT22;7657;50.140;7.076;2023-02-15T07:43:26;3.20;99.90
15113;DHT22;7657;50.140;7.076;2023-02-15T07:45:53;3.20;99.90
15113;DHT22;7657;50.140;7.076;2023-02-15T07:48:20;3.30;99.90
15113;DHT22;7657;50.140;7.076;2023-02-15T07:50:47;3.20;99.90
15113;DHT22;7657;50.140;7.076;2023-02-15T07:53:14;3.10;99.90
15113;DHT22;7657;50.140;7.076;2023-02-15T07:55:41;3.20;99.90
15113;DHT22;7657;50.140;7.076;2023-02-15T07:58:09;3.30;99.90
15113;DHT22;7657;50.140;7.076;2023-02-15T08:00:36;3.30;99.90
15113;DHT22;7657;50.140;7.076;2023-02-15T08:03:17;3.30;99.90
15113;DHT22;7657;50.140;7.076;2023-02-15T08:05:45;3.40;99.90
15113;DHT22;7657;50.140;7.076;2023-02-15T08:08:12;3.50;99.90
15113;DHT22;7657;50.140;7.076;2023-02-15T08:10:58;3.50;99.90
15113;DHT22;7657;50.140;7.076;2023-02-15T08:13:44;3.60;99.90
15113;DHT22;7657;50.140;7.076;2023-02-15T08:16:22;3.60;99.90
15113;DHT22;7657;50.140;7.076;2023-02-15T08:18:49;3.70;99.90
15113;DHT22;7657;50.140;7.076;2023-02-15T08:21:17;3.70;99.90
15113;DHT22;7657;50.140;7.076;2023-02-15T08:23:44;3.70;99.90
15113;DHT22;7657;50.140;7.076;2023-02-15T08:26:11;3.70;99.90
15113;DHT22;7657;50.140;7.076;2023-02-15T08:28:37;3.80;99.90
15113;DHT22;7657;50.140;7.076;2023-02-15T08:31:07;3.80;99.90
15113;DHT22;7657;50.140;7.076;2023-02-15T08:33:34;3.90;99.90
15113;DHT22;7657;50.140;7.076;2023-02-15T08:36:06;3.90;99.90
15113;DHT22;7657;50.140;7.076;2023-02-15T08:38:33;4.00;99.90
15113;DHT22;7657;50.140;7.076;2023-02-15T08:41:09;4.00;99.90
15113;DHT22;7657;50.140;7.076;2023-02-15T08:43:36;4.10;99.90
15113;DHT22;7657;50.140;7.076;2023-02-15T08:46:06;4.10;99.90
15113;DHT22;7657;50.140;7.076;2023-02-15T08:48:33;4.10;99.90
15113;DHT22;7657;50.140;7.076;2023-02-15T08:51:04;4.10;99.90
15113;DHT22;7657;50.140;7.076;2023-02-15T08:53:32;4.20;99.90
15113;DHT22;7657;50.140;7.076;2023-02-15T08:56:00;4.30;99.90
15113;DHT22;7657;50.140;7.076;2023-02-15T08:58:28;4.30;99.90
15113;DHT22;7657;50.140;7.076;2023-02-15T09:00:56;4.30;99.90
15113;DHT22;7657;50.140;7.076;2023-02-15T09:03:24;4.40;99.90
15113;DHT22;7657;50.140;7.076;2023-02-15T09:05:57;4.40;99.90
15113;DHT22;7657;50.140;7.076;2023-02-15T09:08:24;4.50;99.90
15113;DHT22;7657;50.140;7.076;2023-02-15T09:10:51;4.40;99.90
15113;DHT22;7657;50.140;7.076;2023-02-15T09:13:18;4.50;99.90
15113;DHT22;7657;50.140;7.076;2023-02-15T09:15:45;4.60;99.90
15113;DHT22;7657;50.140;7.076;2023-02-15T09:18:12;4.60;99.90
15113;DHT22;7657;50.140;7.076;2023-02-15T09:20:44;4.60;99.90
15113;DHT22;7657;50.140;7.076;2023-02-15T09:23:11;4.70;99.90
15113;DHT22;7657;50.140;7.076;2023-02-15T09:25:39;4.80;99.90
15113;DHT22;7657;50.140;7.076;2023-02-15T09:28:08;4.80;99.90
15113;DHT22;7657;50.140;7.076;2023-02-15T09:30:34;4.80;99.90
15113;DHT22;7657;50.140;7.076;2023-02-15T09:33:01;4.90;99.90
15113;DHT22;7657;50.140;7.076;2023-02-15T09:35:28;4.90;99.90
15113;DHT22;7657;50.140;7.076;2023-02-15T09:37:57;4.90;99.90
15113;DHT22;7657;50.140;7.076;2023-02-15T09:40:23;5.00;99.90
15113;DHT22;7657;50.140;7.076;2023-02-15T09:43:15;5.00;99.90
15113;DHT22;7657;50.140;7.076;2023-02-15T09:46:00;5.10;99.90
15113;DHT22;7657;50.140;7.076;2023-02-15T09:48:39;5.10;99.90
15113;DHT22;7657;50.140;7.076;2023-02-15T09:51:22;5.10;99.90
15113;DHT22;7657;50.140;7.076;2023-02-15T09:54:03;5.20;99.90
15113;DHT22;7657;50.140;7.076;2023-02-15T09:56:33;5.20;99.90
15113;DHT22;7657;50.140;7.076;2023-02-15T09:59:10;5.30;99.90
15113;DHT22;7657;50.140;7.076;2023-02-15T10:01:47;5.40;99.90
15113;DHT22;7657;50.140;7.076;2023-02-15T10:04:31;5.40;99.90
15113;DHT22;7657;50.140;7.076;2023-02-15T10:07:08;5.50;99.90
15113;DHT22;7657;50.140;7.076;2023-02-15T10:09:53;5.50;99.90
15113;DHT22;7657;50.140;7.076;2023-02-15T10:15:37;5.60;99.90
15113;DHT22;7657;50.140;7.076;2023-02-15T10:18:23;5.70;99.90
15113;DHT22;7657;50.140;7.076;2023-02-15T10:20:56;5.70;99.90
15113;DHT22;7657;50.140;7.076;2023-02-15T10:23:42;5.80;99.90
15113;DHT22;7657;50.140;7.076;2023-02-15T10:26:18;5.80;99.90
15113;DHT22;7657;50.140;7.076;2023-02-15T10:28:48;5.90;99.90
15113;DHT22;7657;50.140;7.076;2023-02-15T10:31:23;5.90;99.90
15113;DHT22;7657;50.140;7.076;2023-02-15T10:34:11;6.00;99.90
15113;DHT22;7657;50.140;7.076;2023-02-15T10:37:05;6.00;99.90
15113;DHT22;7657;50.140;7.076;2023-02-15T10:39:44;6.10;99.90
15113;DHT22;7657;50.140;7.076;2023-02-15T10:42:19;6.10;99.90
15113;DHT22;7657;50.140;7.076;2023-02-15T10:44:58;6.20;99.90
15113;DHT22;7657;50.140;7.076;2023-02-15T10:47:46;6.20;99.90
15113;DHT22;7657;50.140;7.076;2023-02-15T10:50:28;6.30;99.90
15113;DHT22;7657;50.140;7.076;2023-02-15T10:53:09;6.30;99.90
15113;DHT22;7657;50.140;7.076;2023-02-15T10:55:48;6.40;99.90
15113;DHT22;7657;50.140;7.076;2023-02-15T10:58:26;6.40;99.90
15113;DHT22;7657;50.140;7.076;2023-02-15T11:00:58;6.50;99.90
15113;DHT22;7657;50.140;7.076;2023-02-15T11:03:40;6.50;99.90
15113;DHT22;7657;50.140;7.076;2023-02-15T11:06:14;6.50;99.90
15113;DHT22;7657;50.140;7.076;2023-02-15T11:08:45;6.60;99.90
15113;DHT22;7657;50.140;7.076;2023-02-15T11:11:15;6.70;99.90
15113;DHT22;7657;50.140;7.076;2023-02-15T11:13:51;6.70;99.90
15113;DHT22;7657;50.140;7.076;2023-02-15T11:16:22;6.70;99.90
15113;DHT22;7657;50.140;7.076;2023-02-15T11:18:53;6.80;99.90
15113;DHT22;7657;50.140;7.076;2023-02-15T11:21:22;6.80;99.90
15113;DHT22;7657;50.140;7.076;2023-02-15T11:23:51;6.80;99.90
15113;DHT22;7657;50.140;7.076;2023-02-15T11:26:24;6.90;99.90
15113;DHT22;7657;50.140;7.076;2023-02-15T11:28:58;6.90;99.90
15113;DHT22;7657;50.140;7.076;2023-02-15T11:31:27;7.00;99.90
15113;DHT22;7657;50.140;7.076;2023-02-15T11:34:02;7.00;99.90
15113;DHT22;7657;50.140;7.076;2023-02-15T11:36:34;7.10;99.90
15113;DHT22;7657;50.140;7.076;2023-02-15T11:39:03;7.10;99.90
15113;DHT22;7657;50.140;7.076;2023-02-15T11:41:38;7.20;99.90
15113;DHT22;7657;50.140;7.076;2023-02-15T11:44:14;7.20;99.90
15113;DHT22;7657;50.140;7.076;2023-02-15T11:46:42;7.20;99.90
15113;DHT22;7657;50.140;7.076;2023-02-15T11:49:21;7.30;99.90
15113;DHT22;7657;50.140;7.076;2023-02-15T11:51:50;7.30;99.90
15113;DHT22;7657;50.140;7.076;2023-02-15T11:54:18;7.40;99.90
15113;DHT22;7657;50.140;7.076;2023-02-15T11:56:48;7.40;99.90
15113;DHT22;7657;50.140;7.076;2023-02-15T11:59:21;7.50;99.90
15113;DHT22;7657;50.140;7.076;2023-02-15T12:01:53;7.50;99.90
15113;DHT22;7657;50.140;7.076;2023-02-15T12:04:23;7.60;99.90
15113;DHT22;7657;50.140;7.076;2023-02-15T12:06:54;7.60;99.90
15113;DHT22;7657;50.140;7.076;2023-02-15T12:09:29;7.60;99.90
15113;DHT22;7657;50.140;7.076;2023-02-15T12:12:20;7.70;99.90
15113;DHT22;7657;50.140;7.076;2023-02-15T12:14:51;7.80;99.90
15113;DHT22;7657;50.140;7.076;2023-02-15T12:17:20;7.80;99.90
15113;DHT22;7657;50.140;7.076;2023-02-15T12:19:48;7.90;99.90
15113;DHT22;7657;50.140;7.076;2023-02-15T12:22:21;7.90;99.90
15113;DHT22;7657;50.140;7.076;2023-02-15T12:24:51;7.90;99.90
15113;DHT22;7657;50.140;7.076;2023-02-15T12:27:21;8.00;99.90
15113;DHT22;7657;50.140;7.076;2023-02-15T12:29:52;8.00;99.90
15113;DHT22;7657;50.140;7.076;2023-02-15T12:32:23;8.10;99.90
15113;DHT22;7657;50.140;7.076;2023-02-15T12:34:52;8.10;99.90
15113;DHT22;7657;50.140;7.076;2023-02-15T12:37:23;8.10;99.90
15113;DHT22;7657;50.140;7.076;2023-02-15T12:39:54;8.20;99.90
15113;DHT22;7657;50.140;7.076;2023-02-15T12:42:22;8.20;99.90
15113;DHT22;7657;50.140;7.076;2023-02-15T12:44:57;8.30;99.90
15113;DHT22;7657;50.140;7.076;2023-02-15T12:47:24;8.30;99.90
15113;DHT22;7657;50.140;7.076;2023-02-15T12:50:22;8.40;99.90
15113;DHT22;7657;50.140;7.076;2023-02-15T12:53:06;8.40;99.90
15113;DHT22;7657;50.140;7.076;2023-02-15T12:55:33;8.50;99.90
15113;DHT22;7657;50.140;7.076;2023-02-15T12:58:08;8.50;99.90
15113;DHT22;7657;50.140;7.076;2023-02-15T13:00:37;8.60;99.90
15113;DHT22;7657;50.140;7.076;2023-02-15T13:03:04;8.60;99.90
15113;DHT22;7657;50.140;7.076;2023-02-15T13:05:33;8.60;99.90
15113;DHT22;7657;50.140;7.076;2023-02-15T13:08:03;8.70;99.90
15113;DHT22;7657;50.140;7.076;2023-02-15T13:10:39;8.70;99.90
15113;DHT22;7657;50.140;7.076;2023-02-15T13:13:10;8.80;99.90
15113;DHT22;7657;50.140;7.076;2023-02-15T13:15:40;8.80;99.90
15113;DHT22;7657;50.140;7.076;2023-02-15T13:18:14;8.90;99.90
15113;DHT22;7657;50.140;7.076;2023-02-15T13:20:43;9.00;99.90
15113;DHT22;7657;50.140;7.076;2023-02-15T13:23:21;9.00;99.90
15113;DHT22;7657;50.140;7.076;2023-02-15T13:25:51;9.00;99.90
15113;DHT22;7657;50.140;7.076;2023-02-15T13:28:23;9.10;99.90
15113;DHT22;7657;50.140;7.076;2023-02-15T13:30:53;9.10;99.90
15113;DHT22;7657;50.140;7.076;2023-02-15T13:33:24;9.20;99.90
15113;DHT22;7657;50.140;7.076;2023-02-15T13:36:02;9.20;99.90
15113;DHT22;7657;50.140;7.076;2023-02-15T13:38:49;9.20;99.90
15113;DHT22;7657;50.140;7.076;2023-02-15T13:41:23;9.20;99.90
15113;DHT22;7657;50.140;7.076;2023-02-15T13:43:59;9.20;99.90
15113;DHT22;7657;50.140;7.076;2023-02-15T13:46:48;9.20;99.90
15113;DHT22;7657;50.140;7.076;2023-02-15T13:49:32;9.30;99.90
15113;DHT22;7657;50.140;7.076;2023-02-15T13:52:09;9.30;99.90
15113;DHT22;7657;50.140;7.076;2023-02-15T13:58:08;9.30;99.90
15113;DHT22;7657;50.140;7.076;2023-02-15T14:00:46;9.30;99.90
15113;DHT22;7657;50.140;7.076;2023-02-15T14:03:42;9.30;99.90
15113;DHT22;7657;50.140;7.076;2023-02-15T14:06:27;9.30;99.90
15113;DHT22;7657;50.140;7.076;2023-02-15T14:09:05;9.30;99.90
15113;DHT22;7657;50.140;7.076;2023-02-15T14:11:39;9.30;99.90
15113;DHT22;7657;50.140;7.076;2023-02-15T14:17:17;9.40;99.90
15113;DHT22;7657;50.140;7.076;2023-02-15T14:19:51;9.40;99.90
15113;DHT22;7657;50.140;7.076;2023-02-15T14:22:26;9.40;99.90
15113;DHT22;7657;50.140;7.076;2023-02-15T14:25:14;9.50;99.90
15113;DHT22;7657;50.140;7.076;2023-02-15T14:27:54;9.50;99.90
15113;DHT22;7657;50.140;7.076;2023-02-15T14:30:26;9.50;99.90
15113;DHT22;7657;50.140;7.076;2023-02-15T14:32:59;9.50;99.90
15113;DHT22;7657;50.140;7.076;2023-02-15T14:35:30;9.50;99.90
15113;DHT22;7657;50.140;7.076;2023-02-15T14:38:04;9.60;99.90
15113;DHT22;7657;50.140;7.076;2023-02-15T14:40:39;9.60;99.90
15113;DHT22;7657;50.140;7.076;2023-02-15T14:43:32;9.50;99.90
15113;DHT22;7657;50.140;7.076;2023-02-15T14:46:05;9.50;99.90
15113;DHT22;7657;50.140;7.076;2023-02-15T14:48:38;9.50;99.90
15113;DHT22;7657;50.140;7.076;2023-02-15T14:51:10;9.50;99.90
15113;DHT22;7657;50.140;7.076;2023-02-15T14:53:38;9.50;99.90
15113;DHT22;7657;50.140;7.076;2023-02-15T14:56:24;9.50;99.90
15113;DHT22;7657;50.140;7.076;2023-02-15T14:59:16;9.50;99.90
15113;DHT22;7657;50.140;7.076;2023-02-15T15:01:57;9.60;99.90
15113;DHT22;7657;50.140;7.076;2023-02-15T15:04:35;9.60;99.90
15113;DHT22;7657;50.140;7.076;2023-02-15T15:07:09;9.60;99.90
15113;DHT22;7657;50.140;7.076;2023-02-15T15:09:41;9.60;99.90
15113;DHT22;7657;50.140;7.076;2023-02-15T15:12:38;9.60;99.90
15113;DHT22;7657;50.140;7.076;2023-02-15T15:15:06;9.60;99.90
15113;DHT22;7657;50.140;7.076;2023-02-15T15:17:53;9.50;99.90
15113;DHT22;7657;50.140;7.076;2023-02-15T15:20:54;9.60;99.90
15113;DHT22;7657;50.140;7.076;2023-02-15T15:23:49;9.50;99.90
15113;DHT22;7657;50.140;7.076;2023-02-15T15:26:24;9.50;99.90
15113;DHT22;7657;50.140;7.076;2023-02-15T15:29:01;9.50;99.90
15113;DHT22;7657;50.140;7.076;2023-02-15T15:31:37;9.40;99.90
15113;DHT22;7657;50.140;7.076;2023-02-15T15:37:42;9.40;99.90
15113;DHT22;7657;50.140;7.076;2023-02-15T15:40:38;9.40;99.90
15113;DHT22;7657;50.140;7.076;2023-02-15T15:43:31;9.40;99.90
15113;DHT22;7657;50.140;7.076;2023-02-15T15:46:18;9.40;99.90
15113;DHT22;7657;50.140;7.076;2023-02-15T15:48:46;9.40;99.90
15113;DHT22;7657;50.140;7.076;2023-02-15T15:51:18;9.40;99.90
15113;DHT22;7657;50.140;7.076;2023-02-15T15:53:49;9.30;99.90
15113;DHT22;7657;50.140;7.076;2023-02-15T15:56:22;9.20;99.90
15113;DHT22;7657;50.140;7.076;2023-02-15T15:58:53;9.20;99.90
15113;DHT22;7657;50.140;7.076;2023-02-15T16:01:25;9.10;99.90
15113;DHT22;7657;50.140;7.076;2023-02-15T16:03:54;9.00;99.90
15113;DHT22;7657;50.140;7.076;2023-02-15T16:06:33;9.00;99.90
15113;DHT22;7657;50.140;7.076;2023-02-15T16:09:16;8.90;99.90
15113;DHT22;7657;50.140;7.076;2023-02-15T16:11:46;8.80;99.90
15113;DHT22;7657;50.140;7.076;2023-02-15T16:14:15;8.90;99.90
15113;DHT22;7657;50.140;7.076;2023-02-15T16:16:50;8.70;99.90
15113;DHT22;7657;50.140;7.076;2023-02-15T16:19:20;8.60;99.90
15113;DHT22;7657;50.140;7.076;2023-02-15T16:21:49;8.40;99.90
15113;DHT22;7657;50.140;7.076;2023-02-15T16:24:34;8.40;99.90
15113;DHT22;7657;50.140;7.076;2023-02-15T16:27:32;8.30;99.90
15113;DHT22;7657;50.140;7.076;2023-02-15T16:30:17;8.10;99.90
15113;DHT22;7657;50.140;7.076;2023-02-15T16:32:45;8.10;99.90
15113;DHT22;7657;50.140;7.076;2023-02-15T16:35:14;8.10;99.90
15113;DHT22;7657;50.140;7.076;2023-02-15T16:37:41;8.00;99.90
15113;DHT22;7657;50.140;7.076;2023-02-15T16:40:26;8.00;99.90
15113;DHT22;7657;50.140;7.076;2023-02-15T16:43:00;8.00;99.90
15113;DHT22;7657;50.140;7.076;2023-02-15T16:45:31;8.00;99.90
15113;DHT22;7657;50.140;7.076;2023-02-15T16:48:01;8.00;99.90
15113;DHT22;7657;50.140;7.076;2023-02-15T16:50:33;8.00;99.90
15113;DHT22;7657;50.140;7.076;2023-02-15T16:53:01;7.80;99.90